createdAt,value
2018-08-25T00:01:47.186Z,90.80
2018-08-25T00:04:17.277Z,90.70
2018-08-25T00:06:47.352Z,90.80
2018-08-25T00:09:17.420Z,90.90
2018-08-25T00:11:47.489Z,91.00
2018-08-25T00:14:17.585Z,91.00
2018-08-25T00:16:47.601Z,91.10
2018-08-25T00:19:17.708Z,91.00
2018-08-25T00:21:47.761Z,91.00
2018-08-25T00:24:17.718Z,91.10
2018-08-25T00:26:47.873Z,91.20
2018-08-25T00:29:17.929Z,91.20
2018-08-25T00:31:48.053Z,91.20
2018-08-25T00:34:18.104Z,91.20
2018-08-25T00:36:48.172Z,91.30
2018-08-25T00:39:18.208Z,91.50
2018-08-25T00:41:48.294Z,91.20
2018-08-25T00:44:18.408Z,91.20
2018-08-25T00:46:48.473Z,91.50
2018-08-25T00:49:18.608Z,91.50
2018-08-25T00:51:48.644Z,91.60
2018-08-25T00:54:18.736Z,91.50
2018-08-25T00:56:48.844Z,91.60
2018-08-25T00:59:18.970Z,91.50
2018-08-25T01:01:49.045Z,91.70
2018-08-25T01:04:19.117Z,91.60
2018-08-25T01:06:49.247Z,91.80
2018-08-25T01:09:19.348Z,91.60
2018-08-25T01:11:49.454Z,91.30
2018-08-25T01:14:19.652Z,91.30
2018-08-25T01:16:49.747Z,91.40
2018-08-25T01:19:19.840Z,91.40
2018-08-25T01:21:49.892Z,91.30
2018-08-25T01:24:20.085Z,91.30
2018-08-25T01:26:50.127Z,91.30
2018-08-25T01:29:20.165Z,91.10
2018-08-25T01:31:50.230Z,91.20
2018-08-25T01:34:20.293Z,91.10
2018-08-25T01:36:50.390Z,91.00
2018-08-25T01:39:20.456Z,91.00
2018-08-25T01:41:50.568Z,91.10
2018-08-25T01:44:20.610Z,90.90
2018-08-25T01:46:50.682Z,91.00
2018-08-25T01:49:20.732Z,91.00
2018-08-25T01:51:50.749Z,90.90
2018-08-25T01:54:20.817Z,90.70
2018-08-25T01:56:50.877Z,90.80
2018-08-25T01:59:21.262Z,90.80
2018-08-25T02:01:51.321Z,91.00
2018-08-25T02:04:21.364Z,91.10
2018-08-25T02:06:51.420Z,90.90
2018-08-25T02:09:21.448Z,91.10
2018-08-25T02:11:51.508Z,90.70
2018-08-25T02:14:21.568Z,91.00
2018-08-25T02:16:51.644Z,91.30
2018-08-25T02:19:21.705Z,91.00
2018-08-25T02:21:51.781Z,91.30
2018-08-25T02:24:21.864Z,91.50
2018-08-25T02:26:51.920Z,91.50
2018-08-25T02:29:22.020Z,91.60
2018-08-25T02:31:52.057Z,91.70
2018-08-25T02:34:22.128Z,91.40
2018-08-25T02:36:52.188Z,91.50
2018-08-25T02:39:22.311Z,91.40
2018-08-25T02:41:52.429Z,91.60
2018-08-25T02:44:22.508Z,91.40
2018-08-25T02:46:52.609Z,91.40
2018-08-25T02:49:22.757Z,91.30
2018-08-25T02:51:52.813Z,91.10
2018-08-25T02:54:22.892Z,91.50
2018-08-25T02:56:52.978Z,91.50
2018-08-25T02:59:23.072Z,91.50
2018-08-25T03:01:53.096Z,91.50
2018-08-25T03:04:23.180Z,91.60
2018-08-25T03:06:53.300Z,91.80
2018-08-25T03:09:23.447Z,91.40
2018-08-25T03:11:53.562Z,91.50
2018-08-25T03:14:23.670Z,91.50
2018-08-25T03:16:53.752Z,91.40
2018-08-25T03:19:23.904Z,91.40
2018-08-25T03:21:54.017Z,91.30
2018-08-25T03:24:24.334Z,91.40
2018-08-25T03:26:54.488Z,91.40
2018-08-25T03:29:24.649Z,91.20
2018-08-25T03:31:54.781Z,91.40
2018-08-25T03:34:24.904Z,91.30
2018-08-25T03:36:55.053Z,91.30
2018-08-25T03:39:25.212Z,91.20
2018-08-25T03:41:55.348Z,91.00
2018-08-25T03:44:25.544Z,91.00
2018-08-25T03:46:55.677Z,91.10
2018-08-25T03:49:25.808Z,91.10
2018-08-25T03:52:00.090Z,91.40
2018-08-25T03:54:30.291Z,91.10
2018-08-25T03:57:00.441Z,91.20
2018-08-25T03:59:30.556Z,91.30
2018-08-25T04:02:00.681Z,91.20
2018-08-25T04:04:30.865Z,91.20
2018-08-25T04:07:07.597Z,91.20
2018-08-25T04:09:37.694Z,91.00
2018-08-25T04:12:07.917Z,91.20
2018-08-25T04:14:38.184Z,91.30
2018-08-25T04:17:08.317Z,91.10
2018-08-25T04:19:38.467Z,91.20
2018-08-25T04:22:08.650Z,91.30
2018-08-25T04:24:38.776Z,91.30
2018-08-25T04:27:09.009Z,91.30
2018-08-25T04:29:39.153Z,91.50
2018-08-25T04:32:09.298Z,91.20
2018-08-25T04:34:39.516Z,91.20
2018-08-25T04:37:09.744Z,91.30
2018-08-25T04:39:39.876Z,91.00
2018-08-25T04:42:10.040Z,91.20
2018-08-25T04:44:40.164Z,91.30
2018-08-25T04:47:10.328Z,91.40
2018-08-25T04:49:40.450Z,91.20
2018-08-25T04:52:10.953Z,91.30
2018-08-25T04:54:41.128Z,91.10
2018-08-25T04:57:11.401Z,91.20
2018-08-25T04:59:41.584Z,91.20
2018-08-25T05:02:11.715Z,90.90
2018-08-25T05:04:41.981Z,91.00
2018-08-25T05:07:12.175Z,90.90
2018-08-25T05:09:42.367Z,90.70
2018-08-25T05:12:12.451Z,90.60
2018-08-25T05:14:42.613Z,90.50
2018-08-25T05:17:12.774Z,90.40
2018-08-25T05:19:43.014Z,90.40
2018-08-25T05:22:13.288Z,90.30
2018-08-25T05:24:43.424Z,90.20
2018-08-25T05:27:13.556Z,90.10
2018-08-25T05:29:43.696Z,90.10
2018-08-25T05:32:13.872Z,90.00
2018-08-25T05:34:44.024Z,90.00
2018-08-25T05:37:14.297Z,89.20
2018-08-25T05:39:44.448Z,89.00
2018-08-25T05:42:14.689Z,88.70
2018-08-25T05:44:44.817Z,88.00
2018-08-25T05:47:14.945Z,88.00
2018-08-25T05:49:44.982Z,88.00
2018-08-25T05:52:15.105Z,88.50
2018-08-25T05:54:45.296Z,88.30
2018-08-25T05:57:15.512Z,87.80
2018-08-25T05:59:45.642Z,88.40
2018-08-25T06:02:15.805Z,87.60
2018-08-25T06:04:45.952Z,87.50
2018-08-25T06:07:16.154Z,87.50
2018-08-25T06:09:46.370Z,87.60
2018-08-25T06:12:16.513Z,87.20
2018-08-25T06:14:46.698Z,86.90
2018-08-25T06:17:16.904Z,86.90
2018-08-25T06:19:47.029Z,86.60
2018-08-25T06:22:17.176Z,86.50
2018-08-25T06:24:47.316Z,86.60
2018-08-25T06:27:17.453Z,86.80
2018-08-25T06:29:47.736Z,86.70
2018-08-25T06:32:17.796Z,86.40
2018-08-25T06:34:47.978Z,85.60
2018-08-25T06:37:18.068Z,84.80
2018-08-25T06:39:48.218Z,85.00
2018-08-25T06:42:18.437Z,85.70
2018-08-25T06:44:48.640Z,85.10
2018-08-25T06:47:18.821Z,85.40
2018-08-25T06:49:48.990Z,84.20
2018-08-25T06:52:19.132Z,83.40
2018-08-25T06:54:49.290Z,83.90
2018-08-25T06:57:19.496Z,84.20
2018-08-25T06:59:49.613Z,83.60
2018-08-25T07:02:19.760Z,83.60
2018-08-25T07:04:49.853Z,83.90
2018-08-25T07:07:20.036Z,83.60
2018-08-25T07:09:50.184Z,83.10
2018-08-25T07:12:20.360Z,83.10
2018-08-25T07:14:50.472Z,82.70
2018-08-25T07:17:20.644Z,82.00
2018-08-25T07:19:50.928Z,82.40
2018-08-25T07:22:21.201Z,82.70
2018-08-25T07:24:51.279Z,82.10
2018-08-25T07:27:21.580Z,81.90
2018-08-25T07:36:36.598Z,81.80
2018-08-25T07:39:09.368Z,81.00
2018-08-25T07:41:39.527Z,78.90
2018-08-25T07:44:09.795Z,79.30
2018-08-25T07:46:40.325Z,80.20
2018-08-25T07:49:10.428Z,79.70
2018-08-25T07:51:40.661Z,78.90
2018-08-25T07:54:10.920Z,78.60
2018-08-25T07:56:41.108Z,79.20
2018-08-25T07:59:11.390Z,77.10
2018-08-25T08:01:41.516Z,78.10
2018-08-25T08:04:11.701Z,76.00
2018-08-25T08:06:41.837Z,76.00
2018-08-25T08:09:12.140Z,75.10
2018-08-25T08:11:42.324Z,75.90
2018-08-25T08:14:12.934Z,77.40
2018-08-25T08:16:43.072Z,75.70
2018-08-25T08:19:13.403Z,73.90
2018-08-25T08:21:44.228Z,74.20
2018-08-25T08:24:15.019Z,74.70
2018-08-25T08:26:45.181Z,74.40
2018-08-25T08:29:15.310Z,74.10
2018-08-25T08:31:46.216Z,73.90
2018-08-25T08:34:16.411Z,73.80
2018-08-25T08:36:46.549Z,72.00
2018-08-25T08:39:16.763Z,72.10
2018-08-25T08:41:46.933Z,70.70
2018-08-25T08:44:17.164Z,71.60
2018-08-25T08:46:47.323Z,69.80
2018-08-25T08:49:17.520Z,69.10
2018-08-25T08:51:47.688Z,71.20
2018-08-25T08:54:17.889Z,71.10
2018-08-25T08:56:48.048Z,69.60
2018-08-25T08:59:18.160Z,69.00
2018-08-25T09:01:48.297Z,68.00
2018-08-25T09:04:18.492Z,67.50
2018-08-25T09:06:48.674Z,69.30
2018-08-25T09:09:18.880Z,67.50
2018-08-25T09:11:49.041Z,66.70
2018-08-25T09:14:19.285Z,66.70
2018-08-25T09:16:49.471Z,66.70
2018-08-25T09:19:19.599Z,67.60
2018-08-25T09:21:49.772Z,65.30
2018-08-25T09:24:19.901Z,66.10
2018-08-25T09:26:50.164Z,65.10
2018-08-25T09:29:20.230Z,65.90
2018-08-25T09:31:50.396Z,65.00
2018-08-25T09:34:20.503Z,65.70
2018-08-25T09:36:50.943Z,65.40
2018-08-25T09:39:20.972Z,64.60
2018-08-25T09:44:23.801Z,63.80
2018-08-25T09:46:53.996Z,63.80
2018-08-25T09:49:24.148Z,64.40
2018-08-25T09:51:54.268Z,65.20
2018-08-25T09:54:24.413Z,62.60
2018-08-25T09:56:54.585Z,63.70
2018-08-25T09:59:24.768Z,64.50
2018-08-25T10:02:01.874Z,62.60
2018-08-25T10:04:32.296Z,62.40
2018-08-25T10:07:02.508Z,62.10
2018-08-25T10:09:32.741Z,61.90
2018-08-25T10:12:02.919Z,62.10
2018-08-25T10:14:33.068Z,64.10
2018-08-25T10:17:03.422Z,63.30
2018-08-25T10:19:33.524Z,63.20
2018-08-25T10:22:03.916Z,62.70
2018-08-25T10:24:34.029Z,61.80
2018-08-25T10:27:04.143Z,63.00
2018-08-25T10:29:34.272Z,63.50
2018-08-25T10:32:04.497Z,62.10
2018-08-25T10:34:34.633Z,61.80
2018-08-25T10:37:04.814Z,60.20
2018-08-25T10:39:34.963Z,60.80
2018-08-25T10:42:05.226Z,58.50
2018-08-25T10:44:35.306Z,59.50
2018-08-25T10:47:05.537Z,59.00
2018-08-25T10:49:35.730Z,60.00
2018-08-25T10:52:06.220Z,57.50
2018-08-25T10:54:36.346Z,57.10
2018-08-25T10:57:06.563Z,58.40
2018-08-25T10:59:36.773Z,59.20
2018-08-25T11:02:06.952Z,59.50
2018-08-25T11:04:37.818Z,60.40
2018-08-25T11:07:07.962Z,59.20
2018-08-25T11:09:38.117Z,58.40
2018-08-25T11:12:08.318Z,59.20
2018-08-25T11:14:38.440Z,57.90
2018-08-25T11:17:08.575Z,56.90
2018-08-25T11:19:38.804Z,58.70
2018-08-25T11:22:08.992Z,57.70
2018-08-25T11:24:39.204Z,57.60
2018-08-25T11:27:09.364Z,57.30
2018-08-25T11:29:39.603Z,56.40
2018-08-25T11:32:09.866Z,56.00
2018-08-25T11:34:40.021Z,56.90
2018-08-25T11:37:10.372Z,57.50
2018-08-25T11:39:40.477Z,57.80
2018-08-25T11:42:10.701Z,55.60
2018-08-25T11:44:40.914Z,56.40
2018-08-25T11:47:14.072Z,57.40
2018-08-25T11:49:45.293Z,57.30
2018-08-25T11:52:15.530Z,58.10
2018-08-25T11:54:45.686Z,58.90
2018-08-25T11:57:15.839Z,56.40
2018-08-25T11:59:45.964Z,57.30
2018-08-25T12:02:16.226Z,58.40
2018-08-25T12:04:46.329Z,59.90
2018-08-25T12:07:16.593Z,59.80
2018-08-25T12:09:46.782Z,60.30
2018-08-25T12:12:17.020Z,59.90
2018-08-25T12:14:47.168Z,60.50
2018-08-25T12:17:17.368Z,60.00
2018-08-25T12:19:47.533Z,59.10
2018-08-25T12:22:17.765Z,60.10
2018-08-25T12:24:47.940Z,60.90
2018-08-25T12:27:18.126Z,59.70
2018-08-25T12:29:48.330Z,60.10
2018-08-25T12:32:18.592Z,60.10
2018-08-25T12:34:48.728Z,59.50
2018-08-25T12:37:18.906Z,59.80
2018-08-25T12:39:49.110Z,59.40
2018-08-25T12:42:19.318Z,60.30
2018-08-25T12:44:49.500Z,60.80
2018-08-25T12:47:25.025Z,60.40
2018-08-25T12:49:56.657Z,60.70
2018-08-25T12:52:26.879Z,60.20
2018-08-25T12:54:57.064Z,60.20
2018-08-25T12:57:27.218Z,59.30
2018-08-25T12:59:57.388Z,59.10
2018-08-25T13:02:27.661Z,60.20
2018-08-25T13:04:57.844Z,59.00
2018-08-25T13:07:28.094Z,60.60
2018-08-25T13:09:58.297Z,60.90
2018-08-25T13:12:28.473Z,62.10
2018-08-25T13:14:58.605Z,59.70
2018-08-25T13:17:28.905Z,59.60
2018-08-25T13:19:59.041Z,59.20
2018-08-25T13:22:29.304Z,58.50
2018-08-25T13:24:59.495Z,59.20
2018-08-25T13:27:29.680Z,59.50
2018-08-25T13:29:59.854Z,58.20
2018-08-25T13:32:30.003Z,60.20
2018-08-25T13:35:00.212Z,58.80
2018-08-25T13:37:30.352Z,59.90
2018-08-25T13:40:00.574Z,59.10
2018-08-25T13:42:30.673Z,58.00
2018-08-25T13:45:00.805Z,59.10
2018-08-25T13:47:30.964Z,60.00
2018-08-25T13:50:01.201Z,58.90
2018-08-25T13:52:31.510Z,59.30
2018-08-25T13:55:01.717Z,59.00
2018-08-25T13:57:31.864Z,60.20
2018-08-25T14:00:02.013Z,60.80
2018-08-25T14:02:32.096Z,60.70
2018-08-25T14:05:02.292Z,60.20
2018-08-25T14:07:32.576Z,59.70
2018-08-25T14:10:02.688Z,60.80
2018-08-25T14:12:32.850Z,60.00
2018-08-25T14:15:03.081Z,59.90
2018-08-25T14:17:33.236Z,60.60
2018-08-25T14:20:03.561Z,61.10
2018-08-25T14:22:33.704Z,61.10
2018-08-25T14:25:03.992Z,61.10
2018-08-25T14:27:34.120Z,60.30
2018-08-25T14:30:04.757Z,61.20
2018-08-25T14:32:35.066Z,60.90
2018-08-25T14:35:05.476Z,62.20
2018-08-25T14:37:35.612Z,62.80
2018-08-25T14:40:05.948Z,62.30
2018-08-25T14:42:36.149Z,62.40
2018-08-25T14:45:06.597Z,62.80
2018-08-25T14:47:36.752Z,62.20
2018-08-25T14:50:06.916Z,62.50
2018-08-25T14:52:37.084Z,61.90
2018-08-25T14:55:07.252Z,61.90
2018-08-25T14:57:37.400Z,61.50
2018-08-25T15:00:07.641Z,62.10
2018-08-25T15:02:37.781Z,63.40
2018-08-25T15:05:08.035Z,62.80
2018-08-25T15:07:38.240Z,63.00
2018-08-25T15:10:08.489Z,63.90
2018-08-25T15:12:38.671Z,62.90
2018-08-25T15:15:08.803Z,62.90
2018-08-25T15:17:39.040Z,63.50
2018-08-25T15:20:09.347Z,63.50
2018-08-25T15:22:39.513Z,64.00
2018-08-25T15:25:09.710Z,63.80
2018-08-25T15:27:39.981Z,64.20
2018-08-25T15:30:10.300Z,64.80
2018-08-25T15:32:40.556Z,64.40
2018-08-25T15:35:10.691Z,64.60
2018-08-25T15:37:40.834Z,65.20
2018-08-25T15:40:11.033Z,65.10
2018-08-25T15:42:41.245Z,65.40
2018-08-25T15:45:11.475Z,65.50
2018-08-25T15:47:41.633Z,65.80
2018-08-25T15:50:11.804Z,65.90
2018-08-25T15:52:42.020Z,66.10
2018-08-25T15:55:12.220Z,65.90
2018-08-25T15:57:42.440Z,67.40
2018-08-25T16:00:13.349Z,66.20
2018-08-25T16:02:44.197Z,66.60
2018-08-25T16:05:14.364Z,65.30
2018-08-25T16:07:44.567Z,65.40
2018-08-25T16:10:16.261Z,65.10
2018-08-25T16:12:47.837Z,66.00
2018-08-25T16:15:18.013Z,66.20
2018-08-25T16:17:48.972Z,66.20
2018-08-25T16:20:19.610Z,66.40
2018-08-25T16:22:49.790Z,66.70
2018-08-25T16:25:20.886Z,66.90
2018-08-25T16:27:51.000Z,67.60
2018-08-25T16:30:22.621Z,67.20
2018-08-25T16:32:52.778Z,68.50
2018-08-25T16:35:23.846Z,68.00
2018-08-25T16:37:54.032Z,68.00
2018-08-25T16:40:24.736Z,68.00
2018-08-25T16:42:55.601Z,68.30
2018-08-25T16:45:26.388Z,68.20
2018-08-25T16:47:56.506Z,69.00
2018-08-25T16:50:26.768Z,68.70
2018-08-25T16:52:57.713Z,69.20
2018-08-25T16:55:29.663Z,69.80
2018-08-25T16:58:00.559Z,69.50
2018-08-25T17:00:30.694Z,70.00
2018-08-25T17:03:00.844Z,70.60
2018-08-25T17:05:31.016Z,70.60
2018-08-25T17:08:01.293Z,70.90
2018-08-25T17:10:31.477Z,70.90
2018-08-25T17:13:01.600Z,71.20
2018-08-25T17:15:31.773Z,71.20
2018-08-25T17:18:01.882Z,71.30
2018-08-25T17:20:32.055Z,71.50
2018-08-25T17:23:02.212Z,71.60
2018-08-25T17:25:32.349Z,71.70
2018-08-25T17:28:02.496Z,71.90
2018-08-25T17:30:32.684Z,71.90
2018-08-25T17:33:02.891Z,72.10
2018-08-25T17:35:33.061Z,72.10
2018-08-25T17:38:03.195Z,72.10
2018-08-25T17:40:33.448Z,72.30
2018-08-25T17:43:03.616Z,72.40
2018-08-25T17:45:33.813Z,72.40
2018-08-25T17:48:03.961Z,72.30
2018-08-25T17:50:34.161Z,72.50
2018-08-25T17:53:04.344Z,72.50
2018-08-25T17:55:34.529Z,72.70
2018-08-25T17:58:04.804Z,72.70
2018-08-25T18:00:35.054Z,72.90
2018-08-25T18:03:05.315Z,73.10
2018-08-25T18:05:35.764Z,73.30
2018-08-25T18:08:05.972Z,73.30
2018-08-25T18:10:36.117Z,73.30
2018-08-25T18:13:06.274Z,73.30
2018-08-25T18:15:36.336Z,73.30
2018-08-25T18:18:06.728Z,73.50
2018-08-25T18:20:36.906Z,73.50
2018-08-25T18:23:07.074Z,73.40
2018-08-25T18:25:37.196Z,73.20
2018-08-25T18:28:07.340Z,73.30
2018-08-25T18:30:37.517Z,73.20
2018-08-25T18:33:07.883Z,73.20
2018-08-25T18:35:38.012Z,73.60
2018-08-25T18:38:08.082Z,73.00
2018-08-25T18:40:38.221Z,72.90
2018-08-25T18:43:08.309Z,72.70
2018-08-25T18:45:38.398Z,72.80
2018-08-25T18:48:08.503Z,73.00
2018-08-25T18:50:38.616Z,73.00
2018-08-25T18:53:08.689Z,73.10
2018-08-25T18:55:38.904Z,73.60
2018-08-25T18:58:09.009Z,73.50
2018-08-25T19:00:39.184Z,74.90
2018-08-25T19:03:09.256Z,74.40
2018-08-25T19:05:39.412Z,74.90
2018-08-25T19:08:09.517Z,75.30
2018-08-25T19:10:39.608Z,74.30
2018-08-25T19:13:09.659Z,75.00
2018-08-25T19:15:39.736Z,74.80
2018-08-25T19:18:09.844Z,73.50
2018-08-25T19:20:39.884Z,73.40
2018-08-25T19:23:09.969Z,72.60
2018-08-25T19:25:40.046Z,73.20
2018-08-25T19:28:10.172Z,74.10
2018-08-25T19:30:40.344Z,73.00
2018-08-25T19:33:10.414Z,73.60
2018-08-25T19:35:40.549Z,72.80
2018-08-25T19:38:10.620Z,73.10
2018-08-25T19:40:40.804Z,73.60
2018-08-25T19:43:11.008Z,73.60
2018-08-25T19:45:41.104Z,73.90
2018-08-25T19:48:11.437Z,74.60
2018-08-25T19:50:41.548Z,74.60
2018-08-25T19:53:11.707Z,75.20
2018-08-25T19:55:41.708Z,74.80
2018-08-25T19:58:11.817Z,75.80
2018-08-25T20:00:41.861Z,76.10
2018-08-25T20:03:11.956Z,76.00
2018-08-25T20:05:42.168Z,76.30
2018-08-25T20:08:12.119Z,76.90
2018-08-25T20:10:42.213Z,76.90
2018-08-25T20:13:12.324Z,77.00
2018-08-25T20:15:42.494Z,76.90
2018-08-25T20:18:12.520Z,77.30
2018-08-25T20:20:42.640Z,77.60
2018-08-25T20:23:12.712Z,77.70
2018-08-25T20:25:42.817Z,78.10
2018-08-25T20:28:12.984Z,78.70
2018-08-25T20:30:43.164Z,78.20
2018-08-25T20:33:13.244Z,78.20
2018-08-25T20:35:43.223Z,79.00
2018-08-25T20:38:13.354Z,79.10
2018-08-25T20:40:43.404Z,79.50
2018-08-25T20:43:13.500Z,79.20
2018-08-25T20:45:43.601Z,79.10
2018-08-25T20:48:13.716Z,79.10
2018-08-25T20:50:43.764Z,79.30
2018-08-25T20:53:13.825Z,79.50
2018-08-25T20:55:43.962Z,79.60
2018-08-25T20:58:14.037Z,79.70
2018-08-25T21:00:44.181Z,79.60
2018-08-25T21:03:14.209Z,79.80
2018-08-25T21:05:44.261Z,80.10
2018-08-25T21:08:14.329Z,81.00
2018-08-25T21:10:44.400Z,81.40
2018-08-25T21:13:14.461Z,80.90
2018-08-25T21:15:44.513Z,81.30
2018-08-25T21:18:14.592Z,81.90
2018-08-25T21:20:44.665Z,81.20
2018-08-25T21:23:14.762Z,82.00
2018-08-25T21:25:44.837Z,82.20
2018-08-25T21:28:15.080Z,82.20
2018-08-25T21:30:45.189Z,81.40
2018-08-25T21:33:15.265Z,81.50
2018-08-25T21:35:45.306Z,82.10
2018-08-25T21:38:15.398Z,82.60
2018-08-25T21:40:45.456Z,82.60
2018-08-25T21:43:15.437Z,83.30
2018-08-25T21:45:45.509Z,82.20
2018-08-25T21:48:15.600Z,82.70
2018-08-25T21:50:45.708Z,82.70
2018-08-25T21:53:15.792Z,83.80
2018-08-25T21:55:46.011Z,82.80
2018-08-25T21:58:16.108Z,84.40
2018-08-25T22:00:51.593Z,84.20
2018-08-25T22:03:21.664Z,84.20
2018-08-25T22:05:52.479Z,83.90
2018-08-25T22:08:22.684Z,84.10
2018-08-25T22:10:53.556Z,83.90
2018-08-25T22:13:23.669Z,83.20
2018-08-25T22:15:53.720Z,83.70
2018-08-25T22:18:23.813Z,83.90
2018-08-25T22:20:53.860Z,84.50
2018-08-25T22:23:23.937Z,85.90
2018-08-25T22:25:54.018Z,84.40
2018-08-25T22:28:24.080Z,84.40
2018-08-25T22:30:54.136Z,85.10
2018-08-25T22:33:24.201Z,84.30
2018-08-25T22:35:54.296Z,84.20
2018-08-25T22:38:24.381Z,84.10
2018-08-25T22:40:54.452Z,84.20
2018-08-25T22:43:24.565Z,84.10
2018-08-25T22:45:54.617Z,84.00
2018-08-25T22:48:24.720Z,83.70
2018-08-25T22:50:54.809Z,83.90
2018-08-25T22:53:24.857Z,83.70
2018-08-25T22:55:55.085Z,83.50
2018-08-25T22:58:25.153Z,83.50
2018-08-25T23:00:55.207Z,83.70
2018-08-25T23:03:25.412Z,83.70
2018-08-25T23:05:55.481Z,84.40
2018-08-25T23:08:25.568Z,84.40
2018-08-25T23:10:55.644Z,84.30
2018-08-25T23:13:25.872Z,84.60
2018-08-25T23:15:55.928Z,84.40
2018-08-25T23:18:26.001Z,85.60
2018-08-25T23:20:56.045Z,85.20
2018-08-25T23:23:26.080Z,84.30
2018-08-25T23:25:56.152Z,84.10
2018-08-25T23:28:26.236Z,84.40
2018-08-25T23:30:56.356Z,84.60
2018-08-25T23:33:26.436Z,85.50
2018-08-25T23:35:56.494Z,85.10
2018-08-25T23:38:26.583Z,84.40
2018-08-25T23:40:56.673Z,84.70
2018-08-25T23:43:26.746Z,85.20
2018-08-25T23:45:56.817Z,84.50
2018-08-25T23:48:26.893Z,85.40
2018-08-25T23:50:56.961Z,85.50
2018-08-25T23:53:27.008Z,85.00
2018-08-25T23:55:57.060Z,85.70
2018-08-25T23:58:27.170Z,85.60
